Neche, North Dakota
Current Conditions -  °F | °C
As of 4:35 AM on Saturday 25 Oct 2014 (Local Time) from K2C8 Reporting Station
Clear Clear  
Wind Chill: 39°   Ceiling: Unl
Heat Index: 45°   Visibility: 10mi
Dew Point: 32°   Wind: 10mph
Humidity: 61%   Direction: 270°W
Pressure: 29.96"   Gusts: NA
Location:  48.99°N, 97.55°W
Report Text: K2C8 250935Z AUTO 27009KT 10SM CLR 07/00 A2996 RMK AO2
Loading
Personal Weather Stations






























Interactive Weather Map
Tropical Storm Tracking
New forecast layout! Learn more

10-Day Weather Forecast

Advertisements
Track Severe Weather on mobile